createdAt,value
2022-08-11T00:01:28.837Z,22.05
2022-08-11T00:04:01.280Z,30.10
2022-08-11T00:06:39.931Z,39.45
2022-08-11T00:09:14.969Z,30.52
2022-08-11T00:11:49.973Z,31.20
2022-08-11T00:14:36.746Z,34.08
2022-08-11T00:17:12.230Z,19.80
2022-08-11T00:20:13.344Z,29.25
2022-08-11T00:22:39.675Z,26.77
2022-08-11T00:25:14.095Z,27.70
2022-08-11T00:27:43.520Z,18.15
2022-08-11T00:30:13.574Z,16.63
2022-08-11T00:32:53.825Z,25.08
2022-08-11T00:35:54.595Z,15.95
2022-08-11T00:38:15.798Z,15.32
2022-08-11T00:41:00.309Z,11.55
2022-08-11T00:43:47.062Z,22.85
2022-08-11T00:46:27.550Z,15.40
2022-08-11T00:49:11.838Z,17.15
2022-08-11T00:52:15.046Z,18.55
2022-08-11T00:55:29.013Z,18.52
2022-08-11T00:58:29.690Z,17.45
2022-08-11T01:03:57.529Z,26.73
2022-08-11T01:06:50.594Z,7.63
2022-08-11T01:09:43.904Z,10.18
2022-08-11T01:12:53.781Z,6.65
2022-08-11T01:15:57.058Z,6.15
2022-08-11T01:18:32.072Z,13.75
2022-08-11T01:21:29.427Z,12.95
2022-08-11T01:24:16.061Z,12.27
2022-08-11T01:27:29.001Z,21.70
2022-08-11T01:30:09.472Z,29.73
2022-08-11T01:33:33.453Z,31.25
2022-08-11T01:36:19.813Z,46.38
2022-08-11T01:39:21.051Z,28.30
2022-08-11T01:42:36.190Z,13.40
2022-08-11T01:45:07.513Z,11.70
2022-08-11T01:47:52.461Z,17.45
2022-08-11T01:50:52.339Z,21.85
2022-08-11T01:53:53.334Z,21.08
2022-08-11T01:56:57.038Z,17.35
2022-08-11T02:04:16.153Z,16.25
2022-08-11T02:07:08.976Z,13.35
2022-08-11T02:10:14.800Z,26.15
2022-08-11T02:12:55.466Z,19.35
2022-08-11T02:15:36.695Z,15.45
2022-08-11T02:18:34.873Z,14.73
2022-08-11T02:21:11.777Z,17.65
2022-08-11T02:24:08.043Z,9.70
2022-08-11T02:26:40.926Z,12.25
2022-08-11T02:29:20.403Z,9.75
2022-08-11T02:32:14.593Z,19.90
2022-08-11T02:34:53.055Z,11.93
2022-08-11T02:37:41.790Z,15.38
2022-08-11T02:40:35.597Z,9.75
2022-08-11T02:43:06.878Z,7.10
2022-08-11T02:46:02.025Z,9.68
2022-08-11T02:49:12.379Z,10.40
2022-08-11T02:52:16.229Z,9.88
2022-08-11T02:55:48.007Z,12.20
2022-08-11T02:58:44.905Z,10.07
2022-08-11T03:01:33.792Z,10.48
2022-08-11T03:04:14.438Z,10.07
2022-08-11T03:07:29.177Z,7.13
2022-08-11T03:10:06.527Z,11.90
2022-08-11T03:12:41.902Z,9.95
2022-08-11T03:15:45.229Z,8.65
2022-08-11T03:18:25.474Z,7.13
2022-08-11T03:21:39.561Z,5.93
2022-08-11T03:24:19.373Z,7.75
2022-08-11T03:27:03.438Z,7.72
2022-08-11T03:29:35.118Z,8.30
2022-08-11T03:32:08.374Z,8.45
2022-08-11T03:34:40.719Z,7.97
2022-08-11T03:37:41.605Z,7.22
2022-08-11T03:40:09.932Z,9.57
2022-08-11T03:42:50.930Z,8.82
2022-08-11T03:45:40.258Z,9.15
2022-08-11T03:48:09.445Z,10.00
2022-08-11T03:51:01.730Z,8.85
2022-08-11T03:54:07.119Z,9.05
2022-08-11T03:57:09.120Z,10.52
2022-08-11T03:59:51.316Z,12.43
2022-08-11T04:03:07.568Z,13.05
2022-08-11T04:05:57.211Z,12.65
2022-08-11T04:09:02.586Z,8.95
2022-08-11T04:11:52.246Z,11.10
2022-08-11T04:14:46.792Z,14.95
2022-08-11T04:17:36.980Z,15.40
2022-08-11T04:20:23.674Z,15.30
2022-08-11T04:23:13.287Z,12.40
2022-08-11T04:26:16.042Z,16.95
2022-08-11T04:29:03.501Z,16.52
2022-08-11T04:32:08.991Z,17.98
2022-08-11T04:34:59.939Z,23.90
2022-08-11T04:37:50.738Z,16.30
2022-08-11T04:41:00.701Z,23.05
2022-08-11T04:44:05.445Z,19.83
2022-08-11T04:46:59.731Z,21.05
2022-08-11T04:49:49.498Z,25.27
2022-08-11T04:52:23.834Z,23.98
2022-08-11T04:55:33.420Z,35.10
2022-08-11T04:58:08.778Z,54.60
2022-08-11T05:01:00.308Z,51.42
2022-08-11T05:04:22.416Z,30.67
2022-08-11T05:07:02.772Z,26.70
2022-08-11T05:10:07.423Z,18.65
2022-08-11T05:12:39.135Z,15.88
2022-08-11T05:15:13.868Z,15.77
2022-08-11T05:18:03.996Z,23.77
2022-08-11T05:20:44.009Z,15.65
2022-08-11T05:23:13.482Z,19.60
2022-08-11T05:26:43.389Z,17.65
2022-08-11T05:28:36.616Z,18.55
2022-08-11T05:31:12.600Z,21.75
2022-08-11T05:33:52.162Z,21.85
2022-08-11T05:36:32.103Z,20.10
2022-08-11T05:39:07.740Z,29.70
2022-08-11T05:41:36.541Z,37.50
2022-08-11T05:44:20.605Z,29.30
2022-08-11T05:46:51.506Z,26.83
2022-08-11T05:49:19.962Z,25.52
2022-08-11T05:51:55.049Z,21.67
2022-08-11T05:54:28.962Z,24.38
2022-08-11T05:57:01.674Z,19.65
2022-08-11T05:59:32.192Z,20.60
2022-08-11T06:02:06.114Z,18.27
2022-08-11T06:09:40.891Z,20.98
2022-08-11T06:12:17.713Z,18.55
2022-08-11T06:14:47.298Z,16.50
2022-08-11T06:17:22.813Z,18.02
2022-08-11T06:20:08.983Z,20.50
2022-08-11T06:22:37.812Z,25.60
2022-08-11T06:25:09.002Z,20.85
2022-08-11T06:27:39.666Z,15.35
2022-08-11T06:30:09.008Z,19.15
2022-08-11T06:32:37.990Z,18.63
2022-08-11T06:35:22.594Z,29.08
2022-08-11T06:37:58.721Z,20.95
2022-08-11T06:40:47.340Z,14.57
2022-08-11T06:43:23.660Z,22.48
2022-08-11T06:46:02.133Z,17.48
2022-08-11T06:48:33.368Z,25.60
2022-08-11T06:51:09.022Z,27.15
2022-08-11T06:53:43.454Z,25.30
2022-08-11T06:56:36.050Z,29.88
2022-08-11T06:59:04.653Z,31.27
2022-08-11T07:01:48.568Z,22.13
2022-08-11T07:04:31.333Z,20.02
2022-08-11T07:07:27.111Z,16.83
2022-08-11T07:10:34.238Z,18.17
2022-08-11T07:13:03.544Z,20.67
2022-08-11T07:16:11.202Z,20.67
2022-08-11T07:18:29.074Z,19.27
2022-08-11T07:22:01.852Z,21.90
2022-08-11T07:24:03.458Z,25.85
2022-08-11T07:26:33.228Z,20.30
2022-08-11T07:29:03.143Z,20.50
2022-08-11T07:31:51.400Z,14.13
2022-08-11T07:34:37.125Z,17.08
2022-08-11T07:37:12.701Z,22.40
2022-08-11T07:39:42.599Z,15.63
2022-08-11T07:42:13.992Z,19.73
2022-08-11T07:44:44.053Z,20.83
2022-08-11T07:47:12.611Z,22.38
2022-08-11T07:49:45.304Z,18.60
2022-08-11T07:52:14.417Z,19.00
2022-08-11T07:54:43.690Z,19.55
2022-08-11T07:57:42.203Z,16.15
2022-08-11T08:00:05.158Z,15.98
2022-08-11T08:02:43.921Z,20.80
2022-08-11T08:05:12.340Z,16.42
2022-08-11T08:07:40.829Z,16.13
2022-08-11T08:10:14.169Z,14.35
2022-08-11T08:12:45.417Z,19.42
2022-08-11T08:15:16.588Z,17.02
2022-08-11T08:17:45.863Z,16.73
2022-08-11T08:20:41.131Z,13.35
2022-08-11T08:23:10.222Z,12.98
2022-08-11T08:25:41.824Z,22.30
2022-08-11T08:28:17.160Z,14.15
2022-08-11T08:30:46.298Z,18.45
2022-08-11T08:33:26.483Z,20.05
2022-08-11T08:36:03.455Z,23.02
2022-08-11T08:38:32.031Z,19.42
2022-08-11T08:41:00.791Z,13.98
2022-08-11T08:43:32.380Z,19.88
2022-08-11T08:46:19.673Z,13.88
2022-08-11T08:48:49.869Z,12.35
2022-08-11T08:51:23.095Z,21.05
2022-08-11T08:53:56.229Z,13.77
2022-08-11T08:56:29.297Z,20.13
2022-08-11T08:59:01.639Z,17.70
2022-08-11T09:01:58.295Z,9.50
2022-08-11T09:04:28.032Z,17.48
2022-08-11T09:06:59.780Z,13.30
2022-08-11T09:09:31.696Z,21.58
2022-08-11T09:12:00.539Z,17.02
2022-08-11T09:14:36.398Z,11.40
2022-08-11T09:17:04.758Z,18.33
2022-08-11T09:19:33.053Z,14.50
2022-08-11T09:22:01.488Z,19.10
2022-08-11T09:24:29.854Z,16.88
2022-08-11T09:26:59.181Z,15.50
2022-08-11T09:29:32.271Z,17.67
2022-08-11T09:32:01.664Z,15.85
2022-08-11T09:34:30.558Z,47.92
2022-08-11T09:37:00.782Z,46.20
2022-08-11T09:39:37.940Z,15.25
2022-08-11T09:42:07.138Z,20.90
2022-08-11T09:44:40.271Z,80.75
2022-08-11T09:47:09.087Z,40.55
2022-08-11T09:49:39.349Z,21.13
2022-08-11T09:52:08.291Z,16.17
2022-08-11T09:54:37.155Z,19.40
2022-08-11T09:57:06.364Z,17.65
2022-08-11T09:59:34.590Z,18.63
2022-08-11T10:02:05.027Z,18.98
2022-08-11T10:04:43.673Z,16.75
2022-08-11T10:07:19.879Z,17.58
2022-08-11T10:10:01.924Z,9.75
2022-08-11T10:12:38.102Z,14.20
2022-08-11T10:15:11.874Z,14.75
2022-08-11T10:17:45.356Z,11.05
2022-08-11T10:20:14.380Z,17.40
2022-08-11T10:22:43.930Z,14.43
2022-08-11T10:25:14.361Z,11.20
2022-08-11T10:28:33.057Z,31.27
2022-08-11T10:30:33.967Z,18.73
2022-08-11T10:33:04.390Z,15.40
2022-08-11T10:35:38.129Z,17.02
2022-08-11T10:38:09.739Z,15.32
2022-08-11T10:43:09.554Z,14.85
2022-08-11T10:45:39.676Z,20.83
2022-08-11T10:48:12.178Z,15.27
2022-08-11T10:50:48.218Z,14.55
2022-08-11T10:53:18.201Z,17.00
2022-08-11T10:55:48.553Z,13.13
2022-08-11T10:58:18.547Z,14.68
2022-08-11T11:00:47.108Z,18.88
2022-08-11T11:03:22.626Z,16.98
2022-08-11T11:06:28.164Z,16.67
2022-08-11T11:11:35.134Z,17.05
2022-08-11T11:14:03.845Z,25.08
2022-08-11T11:16:33.758Z,16.58
2022-08-11T11:19:07.876Z,12.48
2022-08-11T11:21:43.031Z,16.40
2022-08-11T11:24:38.918Z,13.18
2022-08-11T11:27:24.259Z,16.80
2022-08-11T11:30:04.342Z,12.73
2022-08-11T11:32:35.702Z,21.23
2022-08-11T11:35:16.274Z,23.20
2022-08-11T11:37:58.520Z,18.02
2022-08-11T11:42:05.873Z,24.10
2022-08-11T11:44:35.414Z,28.98
2022-08-11T11:47:04.259Z,26.80
2022-08-11T11:49:34.172Z,21.30
2022-08-11T11:52:02.886Z,24.20
2022-08-11T11:54:32.934Z,24.25
2022-08-11T11:57:03.084Z,21.52
2022-08-11T11:59:40.162Z,22.38
2022-08-11T12:02:16.965Z,22.10
2022-08-11T12:04:47.061Z,25.23
2022-08-11T12:07:16.821Z,19.98
2022-08-11T12:09:47.291Z,21.40
2022-08-11T12:12:25.620Z,29.08
2022-08-11T12:14:55.918Z,26.80
2022-08-11T12:17:25.702Z,16.33
2022-08-11T12:19:55.197Z,37.08
2022-08-11T12:22:26.448Z,14.00
2022-08-11T12:24:55.359Z,17.02
2022-08-11T12:27:26.027Z,21.17
2022-08-11T12:30:00.864Z,23.50
2022-08-11T12:32:32.482Z,15.00
2022-08-11T12:35:01.774Z,20.50
2022-08-11T12:37:33.335Z,18.63
2022-08-11T12:40:15.793Z,19.58
2022-08-11T12:43:20.729Z,39.95
2022-08-11T12:45:58.594Z,26.23
2022-08-11T12:48:58.298Z,26.95
2022-08-11T12:51:26.080Z,23.60
2022-08-11T12:54:22.987Z,22.40
2022-08-11T12:57:03.477Z,27.17
2022-08-11T12:59:33.212Z,22.10
2022-08-11T13:02:02.986Z,23.63
2022-08-11T13:04:32.190Z,17.90
2022-08-11T13:07:01.526Z,21.17
2022-08-11T13:09:32.068Z,17.55
2022-08-11T13:12:00.515Z,19.45
2022-08-11T13:14:30.544Z,17.63
2022-08-11T13:17:00.320Z,20.08
2022-08-11T13:19:28.942Z,30.33
2022-08-11T13:21:58.757Z,28.35
2022-08-11T13:24:27.662Z,23.10
2022-08-11T13:26:56.628Z,26.35
2022-08-11T13:29:28.132Z,25.05
2022-08-11T13:32:01.340Z,19.50
2022-08-11T13:34:31.936Z,19.85
2022-08-11T13:37:04.036Z,21.85
2022-08-11T13:39:34.110Z,20.60
2022-08-11T13:42:04.012Z,20.48
2022-08-11T13:44:36.554Z,17.05
2022-08-11T13:47:08.626Z,19.42
2022-08-11T13:49:40.328Z,24.02
2022-08-11T13:52:19.606Z,20.35
2022-08-11T13:54:50.472Z,23.67
2022-08-11T13:58:08.440Z,24.17
2022-08-11T14:00:12.905Z,18.08
2022-08-11T14:02:44.267Z,24.60
2022-08-11T14:05:14.734Z,25.65
2022-08-11T14:08:04.374Z,24.65
2022-08-11T14:10:38.328Z,27.42
2022-08-11T14:13:24.746Z,25.02
2022-08-11T14:15:54.331Z,28.67
2022-08-11T14:18:31.543Z,26.48
2022-08-11T14:21:04.196Z,27.33
2022-08-11T14:23:47.463Z,25.90
2022-08-11T14:26:18.244Z,23.85
2022-08-11T14:28:47.712Z,24.25
2022-08-11T14:31:16.697Z,23.73
2022-08-11T14:34:00.850Z,28.70
2022-08-11T14:36:39.330Z,21.00
2022-08-11T14:39:14.488Z,22.85
2022-08-11T14:42:10.035Z,25.70
2022-08-11T14:44:47.484Z,21.05
2022-08-11T14:47:24.734Z,22.88
2022-08-11T14:50:05.028Z,19.42
2022-08-11T14:53:01.609Z,24.23
2022-08-11T14:55:32.973Z,21.50
2022-08-11T14:58:03.092Z,14.77
2022-08-11T15:00:34.702Z,25.40
2022-08-11T15:03:05.771Z,19.98
2022-08-11T15:05:35.386Z,23.42
2022-08-11T15:08:04.181Z,18.20
2022-08-11T15:10:33.254Z,18.98
2022-08-11T15:13:02.901Z,23.23
2022-08-11T15:15:32.742Z,17.25
2022-08-11T15:18:04.414Z,16.48
2022-08-11T15:20:34.433Z,22.38
2022-08-11T15:23:04.365Z,31.23
2022-08-11T15:25:34.782Z,23.08
2022-08-11T15:28:04.746Z,20.42
2022-08-11T15:30:34.626Z,19.35
2022-08-11T15:33:07.871Z,23.75
2022-08-11T15:35:38.817Z,21.60
2022-08-11T15:38:11.138Z,27.15
2022-08-11T15:40:43.426Z,20.73
2022-08-11T15:45:47.005Z,23.25
2022-08-11T15:48:39.636Z,23.05
2022-08-11T15:51:13.038Z,27.65
2022-08-11T15:53:57.914Z,20.30
2022-08-11T15:56:30.454Z,17.70
2022-08-11T15:59:40.842Z,16.65
2022-08-11T16:01:55.465Z,23.55
2022-08-11T16:04:27.539Z,20.50
2022-08-11T16:07:00.812Z,26.73
2022-08-11T16:09:54.145Z,27.70
2022-08-11T16:12:32.205Z,18.90
2022-08-11T16:15:07.979Z,22.20
2022-08-11T16:17:45.438Z,15.60
2022-08-11T16:20:18.266Z,18.08
2022-08-11T16:26:30.534Z,18.48
2022-08-11T16:28:05.101Z,13.93
2022-08-11T16:30:36.022Z,21.20
2022-08-11T16:33:48.815Z,18.05
2022-08-11T16:35:55.110Z,19.98
2022-08-11T16:38:26.346Z,25.05
2022-08-11T16:40:56.601Z,20.80
2022-08-11T16:43:28.554Z,19.25
2022-08-11T16:45:57.716Z,24.23
2022-08-11T16:48:35.644Z,19.75
2022-08-11T16:51:07.802Z,19.15
2022-08-11T16:53:49.018Z,21.80
2022-08-11T16:56:50.600Z,18.85
2022-08-11T16:59:30.221Z,19.38
2022-08-11T17:02:03.598Z,15.35
2022-08-11T17:04:38.999Z,16.85
2022-08-11T17:07:25.902Z,17.75
2022-08-11T17:09:58.617Z,18.42
2022-08-11T17:12:30.179Z,30.70
2022-08-11T17:15:02.765Z,22.55
2022-08-11T17:17:39.338Z,27.98
2022-08-11T17:20:38.241Z,26.25
2022-08-11T17:25:30.571Z,18.05
2022-08-11T17:28:21.225Z,30.02
2022-08-11T17:30:54.382Z,19.42
2022-08-11T17:33:24.674Z,25.55
2022-08-11T17:35:53.160Z,22.25
2022-08-11T17:38:24.030Z,22.05
2022-08-11T17:41:02.067Z,23.75
2022-08-11T17:43:31.799Z,39.92
2022-08-11T17:46:00.317Z,22.45
2022-08-11T17:48:35.315Z,31.45
2022-08-11T17:51:12.070Z,27.73
2022-08-11T17:54:10.055Z,37.63
2022-08-11T17:56:35.558Z,27.48
2022-08-11T17:59:05.333Z,29.35
2022-08-11T18:01:35.345Z,50.47
2022-08-11T18:04:07.366Z,33.08
2022-08-11T18:06:38.190Z,43.70
2022-08-11T18:09:10.276Z,83.45
2022-08-11T18:14:27.800Z,38.03
2022-08-11T18:16:56.746Z,67.90
2022-08-11T18:19:25.064Z,43.78
2022-08-11T18:22:13.029Z,26.75
2022-08-11T18:24:58.959Z,34.25
2022-08-11T18:27:31.410Z,46.65
2022-08-11T18:30:02.249Z,33.75
2022-08-11T18:32:49.590Z,21.92
2022-08-11T18:35:20.614Z,23.58
2022-08-11T18:37:51.409Z,30.70
2022-08-11T18:40:24.909Z,45.40
2022-08-11T18:42:58.295Z,51.20
2022-08-11T18:45:26.713Z,50.47
2022-08-11T18:48:05.313Z,40.20
2022-08-11T18:50:38.804Z,55.30
2022-08-11T18:53:11.453Z,32.78
2022-08-11T18:55:43.517Z,40.75
2022-08-11T18:58:15.811Z,39.75
2022-08-11T19:00:47.288Z,33.58
2022-08-11T19:03:17.005Z,42.80
2022-08-11T19:06:33.713Z,30.77
2022-08-11T19:08:42.041Z,34.40
2022-08-11T19:11:12.636Z,30.15
2022-08-11T19:13:44.141Z,33.40
2022-08-11T19:16:13.879Z,35.95
2022-08-11T19:18:43.655Z,36.42
2022-08-11T19:21:14.048Z,28.33
2022-08-11T19:23:48.674Z,26.40
2022-08-11T19:26:17.533Z,30.67
2022-08-11T19:28:49.511Z,23.38
2022-08-11T19:31:18.212Z,25.27
2022-08-11T19:33:59.799Z,22.55
2022-08-11T19:36:29.673Z,21.35
2022-08-11T19:38:58.959Z,22.67
2022-08-11T19:41:56.676Z,26.00
2022-08-11T19:44:17.734Z,25.00
2022-08-11T19:46:46.618Z,22.27
2022-08-11T19:49:16.551Z,27.45
2022-08-11T19:51:46.910Z,29.02
2022-08-11T19:54:29.290Z,29.52
2022-08-11T19:56:58.373Z,30.75
2022-08-11T19:59:28.204Z,31.98
2022-08-11T20:02:13.848Z,29.48
2022-08-11T20:04:43.683Z,29.90
2022-08-11T20:07:15.039Z,29.67
2022-08-11T20:10:05.045Z,34.15
2022-08-11T20:12:36.245Z,32.10
2022-08-11T20:15:06.694Z,29.90
2022-08-11T20:17:39.049Z,22.75
2022-08-11T20:20:09.382Z,26.92
2022-08-11T20:22:39.345Z,27.83
2022-08-11T20:25:08.678Z,29.42
2022-08-11T20:27:38.752Z,32.53
2022-08-11T20:30:07.691Z,28.13
2022-08-11T20:32:37.381Z,24.60
2022-08-11T20:35:07.316Z,27.60
2022-08-11T20:37:36.879Z,24.50
2022-08-11T20:40:05.901Z,27.55
2022-08-11T20:42:35.410Z,26.33
2022-08-11T20:45:05.277Z,22.23
2022-08-11T20:47:56.265Z,26.05
2022-08-11T20:50:26.541Z,31.63
2022-08-11T20:52:57.982Z,25.23
2022-08-11T20:55:51.321Z,17.95
2022-08-11T20:58:19.423Z,22.98
2022-08-11T21:00:52.365Z,25.65
2022-08-11T21:03:35.677Z,26.15
2022-08-11T21:06:09.847Z,22.70
2022-08-11T21:08:42.585Z,21.35
2022-08-11T21:11:13.098Z,23.63
2022-08-11T21:13:46.087Z,18.70
2022-08-11T21:19:59.773Z,24.55
2022-08-11T21:22:31.037Z,19.45
2022-08-11T21:25:00.690Z,24.33
2022-08-11T21:27:30.129Z,29.92
2022-08-11T21:30:01.511Z,24.08
2022-08-11T21:32:32.283Z,28.30
2022-08-11T21:35:02.429Z,22.67
2022-08-11T21:37:31.609Z,24.83
2022-08-11T21:40:03.832Z,32.95
2022-08-11T21:42:35.482Z,24.25
2022-08-11T21:45:05.224Z,25.30
2022-08-11T21:47:43.307Z,22.10
2022-08-11T21:50:13.735Z,22.33
2022-08-11T21:52:42.986Z,26.38
2022-08-11T21:55:12.431Z,34.15
2022-08-11T21:57:48.123Z,30.55
2022-08-11T22:00:18.713Z,31.95
2022-08-11T22:02:53.136Z,32.83
2022-08-11T22:05:22.771Z,35.45
2022-08-11T22:07:52.035Z,29.48
2022-08-11T22:10:40.477Z,39.10
2022-08-11T22:13:09.078Z,30.27
2022-08-11T22:15:40.591Z,32.67
2022-08-11T22:18:09.077Z,33.15
2022-08-11T22:20:40.532Z,35.03
2022-08-11T22:23:09.229Z,33.38
2022-08-11T22:25:48.225Z,33.58
2022-08-11T22:28:20.907Z,25.55
2022-08-11T22:30:49.197Z,29.30
2022-08-11T22:33:24.427Z,33.08
2022-08-11T22:35:58.434Z,20.88
2022-08-11T22:38:27.899Z,25.83
2022-08-11T22:40:56.622Z,29.40
2022-08-11T22:43:25.156Z,25.42
2022-08-11T22:45:53.832Z,32.83
2022-08-11T22:48:22.604Z,25.20
2022-08-11T22:50:52.636Z,28.02
2022-08-11T22:53:22.089Z,31.05
2022-08-11T22:55:51.202Z,29.63
2022-08-11T22:58:21.986Z,32.22
2022-08-11T23:00:50.859Z,30.40
2022-08-11T23:03:37.710Z,31.23
2022-08-11T23:06:08.381Z,27.75
2022-08-11T23:08:38.392Z,33.25
2022-08-11T23:11:07.570Z,25.60
2022-08-11T23:13:36.317Z,29.23
2022-08-11T23:16:05.347Z,23.42
2022-08-11T23:18:34.098Z,27.17
2022-08-11T23:21:03.263Z,36.28
2022-08-11T23:23:32.407Z,27.63
2022-08-11T23:26:01.910Z,29.77
2022-08-11T23:28:34.270Z,34.28
2022-08-11T23:31:03.798Z,38.00
2022-08-11T23:33:35.297Z,30.00
2022-08-11T23:36:05.473Z,28.00
2022-08-11T23:38:34.368Z,28.60
2022-08-11T23:41:03.829Z,28.65
2022-08-11T23:43:32.099Z,28.70
2022-08-11T23:46:00.404Z,26.83
2022-08-11T23:48:30.681Z,19.90
2022-08-11T23:51:00.921Z,23.40
2022-08-11T23:53:29.581Z,25.95
2022-08-11T23:55:58.091Z,30.98
2022-08-11T23:58:26.935Z,32.05
